Terminal Aerodrome Forecast
Issued by NWS

Home | Current Version | Previous Version | Text Only | Print | Product List | Glossary On
Versions: 1 2 3 4 5 6 7 8 9 10 11 12 13 14 15 16
000
FTUS46 KSEW 162300 RRA
TAFBFI
TAF
KBFI 162342Z 1700/1724 17008KT P6SM -RA SCT018 BKN035 OVC050
      TEMPO 1702/1706 BKN018 OVC035
     FM170600 15006KT 5SM -RA BR FEW013 OVC025
     FM171800 17013KT P6SM -RA SCT018 OVC030
     FM172200 20013KT P6SM -SHRA BKN030 OVC050=

USA.gov is the U.S. government's official web portal to all federal, state and local government web resources and services.